createdAt,value
2019-06-15T00:01:33.150Z,18.04
2019-06-15T00:04:01.839Z,17.47
2019-06-15T00:06:30.521Z,17.47
2019-06-15T00:08:59.169Z,17.30
2019-06-15T00:11:27.814Z,17.28
2019-06-15T00:13:56.490Z,17.18
2019-06-15T00:16:25.193Z,17.18
2019-06-15T00:18:53.826Z,16.96
2019-06-15T00:21:22.512Z,17.05
2019-06-15T00:23:51.165Z,16.77
2019-06-15T00:26:19.889Z,16.77
2019-06-15T00:28:48.543Z,16.92
2019-06-15T00:31:17.141Z,17.25
2019-06-15T00:33:45.784Z,17.25
2019-06-15T00:36:14.431Z,17.36
2019-06-15T00:38:43.077Z,17.28
2019-06-15T00:41:11.780Z,17.09
2019-06-15T00:43:40.392Z,17.09
2019-06-15T00:46:09.091Z,17.04
2019-06-15T00:48:37.870Z,17.10
2019-06-15T00:51:06.455Z,17.14
2019-06-15T00:53:35.071Z,17.20
2019-06-15T00:56:03.693Z,17.16
2019-06-15T00:58:32.341Z,17.22
2019-06-15T01:01:00.979Z,17.40
2019-06-15T01:03:29.614Z,17.40
2019-06-15T01:05:58.336Z,17.41
2019-06-15T01:08:26.988Z,17.24
2019-06-15T01:10:55.637Z,17.24
2019-06-15T01:13:24.238Z,17.14
2019-06-15T01:15:52.927Z,17.14
2019-06-15T01:18:21.540Z,17.12
2019-06-15T01:20:50.312Z,16.99
2019-06-15T01:23:18.961Z,16.97
2019-06-15T01:25:47.646Z,16.97
2019-06-15T01:28:16.254Z,16.98
2019-06-15T01:30:44.904Z,17.01
2019-06-15T01:33:13.547Z,16.77
2019-06-15T01:35:42.186Z,16.74
2019-06-15T01:38:10.824Z,16.53
2019-06-15T01:40:39.502Z,16.53
2019-06-15T01:43:08.115Z,16.48
2019-06-15T01:45:36.757Z,16.14
2019-06-15T01:48:05.451Z,16.14
2019-06-15T01:50:34.210Z,16.18
2019-06-15T01:53:02.831Z,16.12
2019-06-15T01:55:31.539Z,16.09
2019-06-15T01:58:00.175Z,16.22
2019-06-15T02:00:30.759Z,16.27
2019-06-15T02:02:59.526Z,16.35
2019-06-15T02:05:28.213Z,16.24
2019-06-15T02:07:56.913Z,16.24
2019-06-15T02:10:29.473Z,16.13
2019-06-15T02:12:58.288Z,16.20
2019-06-15T02:15:26.986Z,16.18
2019-06-15T02:17:55.699Z,16.00
2019-06-15T02:20:24.346Z,16.08
2019-06-15T02:22:53.120Z,16.15
2019-06-15T02:25:35.448Z,16.27
2019-06-15T02:27:56.371Z,16.15
2019-06-15T02:30:29.931Z,16.14
2019-06-15T02:32:58.813Z,16.06
2019-06-15T02:35:27.612Z,16.09
2019-06-15T02:37:56.430Z,16.05
2019-06-15T02:40:25.193Z,16.06
2019-06-15T02:42:54.000Z,16.11
2019-06-15T02:45:22.806Z,16.12
2019-06-15T02:47:51.443Z,16.00
2019-06-15T02:50:20.343Z,16.00
2019-06-15T02:52:49.080Z,16.01
2019-06-15T02:55:18.045Z,15.97
2019-06-15T02:57:46.666Z,15.89
2019-06-15T03:00:21.289Z,15.78
2019-06-15T03:02:49.958Z,15.54
2019-06-15T03:05:18.624Z,15.62
2019-06-15T03:07:47.337Z,15.63
2019-06-15T03:10:15.962Z,15.65
2019-06-15T03:12:44.643Z,15.71
2019-06-15T03:15:13.461Z,15.68
2019-06-15T03:17:42.171Z,15.71
2019-06-15T03:20:11.043Z,15.61
2019-06-15T03:22:39.776Z,15.67
2019-06-15T03:25:10.585Z,15.57
2019-06-15T03:27:39.218Z,15.48
2019-06-15T03:30:08.390Z,15.48
2019-06-15T03:32:37.019Z,15.48
2019-06-15T03:35:06.373Z,15.51
2019-06-15T03:37:34.990Z,15.66
2019-06-15T03:40:03.840Z,15.67
2019-06-15T03:42:32.673Z,15.57
2019-06-15T03:45:01.455Z,15.58
2019-06-15T03:47:30.059Z,15.73
2019-06-15T03:49:58.681Z,15.73
2019-06-15T03:52:27.353Z,15.78
2019-06-15T03:54:56.029Z,15.79
2019-06-15T03:57:24.623Z,15.80
2019-06-15T03:59:53.277Z,15.90
2019-06-15T04:02:21.958Z,15.97
2019-06-15T04:04:52.416Z,16.04
2019-06-15T04:07:21.074Z,16.12
2019-06-15T04:09:49.704Z,16.15
2019-06-15T04:12:18.463Z,16.19
2019-06-15T04:14:47.191Z,16.23
2019-06-15T04:17:15.836Z,16.24
2019-06-15T04:19:44.486Z,16.22
2019-06-15T04:22:13.094Z,16.32
2019-06-15T04:24:41.718Z,16.32
2019-06-15T04:27:10.326Z,16.26
2019-06-15T04:29:38.952Z,16.38
2019-06-15T04:32:07.574Z,16.41
2019-06-15T04:34:36.235Z,16.34
2019-06-15T04:37:04.927Z,16.48
2019-06-15T04:39:33.563Z,16.65
2019-06-15T04:42:02.304Z,16.69
2019-06-15T04:44:30.976Z,16.74
2019-06-15T04:46:59.645Z,16.80
2019-06-15T04:49:28.351Z,16.89
2019-06-15T04:51:57.029Z,16.94
2019-06-15T04:54:25.689Z,17.06
2019-06-15T04:56:54.327Z,17.12
2019-06-15T04:59:23.089Z,17.40
2019-06-15T05:01:51.723Z,17.40
2019-06-15T05:04:20.367Z,17.45
2019-06-15T05:06:49.050Z,17.50
2019-06-15T05:09:17.780Z,17.59
2019-06-15T05:11:46.419Z,17.66
2019-06-15T05:14:15.067Z,17.82
2019-06-15T05:16:43.748Z,17.82
2019-06-15T05:19:12.446Z,17.86
2019-06-15T05:21:41.271Z,17.94
2019-06-15T05:24:09.887Z,18.13
2019-06-15T05:26:38.537Z,18.13
2019-06-15T05:29:07.132Z,18.27
2019-06-15T05:31:35.899Z,18.57
2019-06-15T05:34:04.679Z,18.57
2019-06-15T05:36:33.415Z,18.90
2019-06-15T05:39:02.101Z,18.90
2019-06-15T05:41:30.738Z,19.13
2019-06-15T05:43:59.508Z,19.32
2019-06-15T05:46:28.273Z,19.32
2019-06-15T05:48:56.966Z,19.38
2019-06-15T05:51:25.609Z,19.34
2019-06-15T05:53:54.233Z,19.26
2019-06-15T05:56:22.884Z,19.17
2019-06-15T05:58:51.499Z,19.21
2019-06-15T06:01:20.135Z,19.11
2019-06-15T06:03:48.824Z,19.11
2019-06-15T06:06:17.520Z,19.24
2019-06-15T06:08:46.180Z,19.24
2019-06-15T06:11:14.849Z,19.40
2019-06-15T06:13:43.453Z,19.39
2019-06-15T06:16:12.086Z,19.39
2019-06-15T06:18:40.706Z,19.65
2019-06-15T06:21:09.575Z,19.68
2019-06-15T06:23:38.365Z,19.85
2019-06-15T06:26:07.051Z,19.85
2019-06-15T06:28:35.789Z,19.92
2019-06-15T06:31:04.477Z,20.15
2019-06-15T06:33:33.122Z,20.42
2019-06-15T06:36:01.782Z,20.39
2019-06-15T06:38:30.361Z,20.61
2019-06-15T06:40:59.146Z,20.85
2019-06-15T06:43:27.837Z,21.13
2019-06-15T06:45:56.477Z,21.13
2019-06-15T06:48:25.213Z,21.21
2019-06-15T06:50:53.812Z,21.28
2019-06-15T06:53:22.415Z,21.38
2019-06-15T06:55:51.235Z,21.49
2019-06-15T06:58:19.976Z,21.38
2019-06-15T07:00:48.827Z,21.43
2019-06-15T07:03:17.461Z,21.59
2019-06-15T07:05:46.146Z,21.54
2019-06-15T07:08:14.799Z,21.43
2019-06-15T07:10:43.407Z,21.34
2019-06-15T07:13:12.117Z,21.37
2019-06-15T07:15:40.851Z,21.34
2019-06-15T07:18:09.476Z,21.33
2019-06-15T07:20:38.093Z,21.53
2019-06-15T07:23:06.968Z,21.63
2019-06-15T07:25:35.604Z,21.78
2019-06-15T07:28:08.079Z,21.82
2019-06-15T07:30:34.554Z,21.60
2019-06-15T07:33:03.333Z,21.60
2019-06-15T07:35:31.946Z,21.78
2019-06-15T07:38:00.665Z,21.98
2019-06-15T07:40:29.287Z,22.15
2019-06-15T07:42:57.943Z,22.17
2019-06-15T07:45:26.553Z,22.23
2019-06-15T07:47:55.191Z,22.28
2019-06-15T07:50:23.840Z,22.59
2019-06-15T07:52:52.476Z,22.85
2019-06-15T07:55:29.341Z,22.93
2019-06-15T07:57:58.023Z,22.89
2019-06-15T08:00:26.733Z,23.01
2019-06-15T08:02:55.439Z,22.62
2019-06-15T08:05:24.059Z,22.40
2019-06-15T08:07:52.668Z,22.39
2019-06-15T08:10:21.507Z,22.36
2019-06-15T08:12:50.275Z,22.50
2019-06-15T08:15:18.978Z,22.81
2019-06-15T08:17:47.585Z,23.04
2019-06-15T08:20:18.019Z,23.13
2019-06-15T08:22:46.634Z,23.11
2019-06-15T08:25:15.352Z,23.35
2019-06-15T08:27:43.959Z,23.34
2019-06-15T08:30:12.849Z,23.43
2019-06-15T08:32:41.598Z,23.32
2019-06-15T08:35:10.305Z,23.23
2019-06-15T08:37:38.902Z,23.22
2019-06-15T08:40:07.928Z,22.81
2019-06-15T08:42:36.543Z,22.87
2019-06-15T08:45:05.901Z,22.67
2019-06-15T08:47:34.531Z,22.45
2019-06-15T08:50:03.338Z,22.51
2019-06-15T08:52:32.022Z,22.44
2019-06-15T08:55:00.959Z,22.42
2019-06-15T08:57:29.812Z,22.71
2019-06-15T08:59:58.464Z,22.91
2019-06-15T09:02:27.101Z,22.99
2019-06-15T09:04:55.725Z,22.78
2019-06-15T09:07:24.337Z,22.79
2019-06-15T09:09:52.979Z,23.11
2019-06-15T09:12:24.844Z,23.33
2019-06-15T09:14:52.037Z,23.18
2019-06-15T09:17:20.925Z,23.20
2019-06-15T09:19:49.525Z,22.99
2019-06-15T09:22:18.170Z,23.07
2019-06-15T09:24:46.793Z,23.24
2019-06-15T09:27:15.427Z,23.30
2019-06-15T09:29:44.038Z,23.52
2019-06-15T09:32:12.728Z,23.72
2019-06-15T09:34:41.528Z,24.02
2019-06-15T09:37:10.164Z,24.07
2019-06-15T09:39:38.822Z,23.86
2019-06-15T09:42:07.531Z,23.77
2019-06-15T09:44:36.219Z,23.88
2019-06-15T09:47:04.979Z,24.11
2019-06-15T09:49:33.608Z,23.46
2019-06-15T09:52:02.247Z,23.30
2019-06-15T09:54:30.948Z,23.39
2019-06-15T09:56:59.638Z,23.69
2019-06-15T09:59:28.296Z,23.85
2019-06-15T10:01:56.929Z,23.91
2019-06-15T10:04:25.581Z,23.38
2019-06-15T10:06:54.215Z,23.31
2019-06-15T10:09:22.848Z,23.09
2019-06-15T10:11:51.531Z,23.24
2019-06-15T10:14:20.238Z,23.55
2019-06-15T10:16:48.948Z,23.52
2019-06-15T10:19:20.441Z,23.37
2019-06-15T10:21:49.040Z,23.24
2019-06-15T10:24:17.653Z,23.25
2019-06-15T10:26:46.268Z,23.41
2019-06-15T10:29:14.972Z,23.25
2019-06-15T10:31:43.582Z,23.10
2019-06-15T10:34:12.214Z,23.13
2019-06-15T10:36:40.833Z,23.04
2019-06-15T10:39:09.540Z,23.14
2019-06-15T10:41:38.329Z,23.15
2019-06-15T10:44:07.037Z,23.41
2019-06-15T10:46:35.739Z,23.66
2019-06-15T10:49:04.434Z,23.65
2019-06-15T10:51:33.143Z,23.31
2019-06-15T10:54:01.903Z,23.09
2019-06-15T10:56:30.538Z,23.24
2019-06-15T10:58:59.167Z,23.42
2019-06-15T11:01:27.811Z,23.66
2019-06-15T11:03:56.521Z,23.64
2019-06-15T11:06:25.214Z,23.98
2019-06-15T11:08:53.911Z,24.22
2019-06-15T11:11:23.016Z,24.43
2019-06-15T11:13:52.205Z,24.52
2019-06-15T11:16:21.009Z,24.82
2019-06-15T11:18:49.730Z,24.97
2019-06-15T11:21:18.353Z,25.11
2019-06-15T11:23:47.069Z,25.29
2019-06-15T11:26:15.789Z,25.27
2019-06-15T11:28:44.543Z,25.10
2019-06-15T11:31:13.187Z,24.94
2019-06-15T11:33:41.840Z,24.71
2019-06-15T11:36:10.758Z,24.65
2019-06-15T11:38:39.497Z,24.78
2019-06-15T11:41:08.178Z,25.02
2019-06-15T11:43:36.880Z,24.84
2019-06-15T11:46:05.598Z,25.11
2019-06-15T11:48:34.435Z,25.12
2019-06-15T11:51:03.477Z,25.00
2019-06-15T11:53:32.142Z,25.01
2019-06-15T11:56:00.852Z,24.93
2019-06-15T11:58:29.532Z,25.06
2019-06-15T12:00:58.163Z,25.19
2019-06-15T12:03:26.788Z,25.19
2019-06-15T12:05:55.919Z,25.28
2019-06-15T12:08:24.745Z,25.07
2019-06-15T12:10:53.512Z,25.13
2019-06-15T12:13:22.196Z,25.35
2019-06-15T12:15:50.885Z,25.54
2019-06-15T12:18:19.524Z,25.77
2019-06-15T12:20:48.219Z,26.16
2019-06-15T12:23:16.836Z,25.94
2019-06-15T12:25:45.546Z,26.09
2019-06-15T12:28:14.247Z,26.13
2019-06-15T12:30:47.195Z,25.93
2019-06-15T12:33:13.357Z,25.73
2019-06-15T12:35:41.971Z,25.54
2019-06-15T12:38:10.673Z,24.62
2019-06-15T12:40:39.333Z,24.58
2019-06-15T12:43:08.006Z,24.76
2019-06-15T12:45:36.648Z,24.67
2019-06-15T12:48:05.345Z,24.94
2019-06-15T12:50:34.082Z,25.23
2019-06-15T12:53:02.751Z,25.37
2019-06-15T12:55:31.768Z,25.19
2019-06-15T12:58:00.398Z,25.01
2019-06-15T13:00:35.275Z,25.16
2019-06-15T13:03:04.063Z,25.52
2019-06-15T13:05:33.362Z,25.64
2019-06-15T13:08:04.178Z,25.92
2019-06-15T13:10:32.855Z,26.26
2019-06-15T13:13:01.479Z,26.10
2019-06-15T13:15:30.239Z,26.33
2019-06-15T13:17:58.911Z,26.45
2019-06-15T13:20:29.812Z,26.24
2019-06-15T13:22:58.638Z,26.03
2019-06-15T13:25:27.393Z,26.27
2019-06-15T13:27:56.112Z,26.31
2019-06-15T13:30:24.800Z,26.36
2019-06-15T13:32:53.485Z,26.34
2019-06-15T13:35:22.175Z,26.46
2019-06-15T13:37:50.829Z,26.50
2019-06-15T13:40:19.504Z,26.23
2019-06-15T13:42:48.143Z,26.37
2019-06-15T13:45:17.120Z,26.57
2019-06-15T13:47:45.750Z,26.36
2019-06-15T13:50:15.437Z,26.17
2019-06-15T13:52:44.095Z,26.08
2019-06-15T13:55:15.776Z,26.43
2019-06-15T13:57:44.407Z,26.59
2019-06-15T14:00:13.110Z,26.42
2019-06-15T14:02:41.769Z,26.16
2019-06-15T14:05:11.455Z,26.03
2019-06-15T14:07:40.071Z,25.98
2019-06-15T14:10:08.834Z,26.00
2019-06-15T14:12:37.694Z,25.89
2019-06-15T14:15:07.576Z,26.05
2019-06-15T14:17:39.677Z,26.13
2019-06-15T14:20:07.361Z,26.04
2019-06-15T14:22:36.001Z,25.99
2019-06-15T14:25:05.468Z,25.84
2019-06-15T14:27:34.200Z,25.86
2019-06-15T14:30:02.910Z,26.03
2019-06-15T14:32:31.547Z,25.97
2019-06-15T14:35:00.176Z,26.26
2019-06-15T14:37:28.885Z,26.42
2019-06-15T14:39:57.694Z,26.63
2019-06-15T14:42:26.432Z,26.62
2019-06-15T14:44:55.181Z,26.88
2019-06-15T14:47:23.846Z,26.74
2019-06-15T14:49:52.473Z,26.87
2019-06-15T14:52:21.133Z,26.77
2019-06-15T14:54:49.739Z,26.77
2019-06-15T14:57:18.375Z,26.90
2019-06-15T14:59:59.697Z,26.93
2019-06-15T15:02:17.677Z,26.96
2019-06-15T15:04:46.522Z,26.97
2019-06-15T15:07:16.941Z,26.85
2019-06-15T15:09:46.902Z,27.23
2019-06-15T15:12:16.230Z,27.11
2019-06-15T15:14:46.965Z,26.77
2019-06-15T15:17:17.215Z,26.59
2019-06-15T15:19:46.630Z,26.49
2019-06-15T15:22:16.009Z,26.54
2019-06-15T15:24:44.793Z,26.49
2019-06-15T15:27:13.498Z,26.73
2019-06-15T15:29:42.319Z,26.92
2019-06-15T15:32:23.961Z,27.01
2019-06-15T15:34:41.574Z,26.94
2019-06-15T15:37:10.411Z,26.68
2019-06-15T15:39:39.246Z,26.41
2019-06-15T15:42:08.043Z,26.05
2019-06-15T15:44:36.677Z,26.15
2019-06-15T15:47:07.117Z,26.17
2019-06-15T15:49:36.655Z,26.27
2019-06-15T15:52:05.440Z,26.56
2019-06-15T15:54:36.140Z,26.82
2019-06-15T15:57:06.465Z,27.07
2019-06-15T15:59:36.338Z,26.89
2019-06-15T16:02:06.688Z,26.85
2019-06-15T16:04:37.110Z,27.22
2019-06-15T16:07:06.581Z,27.14
2019-06-15T16:09:36.043Z,27.05
2019-06-15T16:12:06.988Z,26.86
2019-06-15T16:14:36.940Z,26.71
2019-06-15T16:17:06.724Z,26.79
2019-06-15T16:19:35.668Z,26.71
2019-06-15T16:22:14.822Z,26.70
2019-06-15T16:24:43.578Z,26.59
2019-06-15T16:27:12.477Z,26.61
2019-06-15T16:29:41.271Z,26.49
2019-06-15T16:32:10.075Z,26.53
2019-06-15T16:34:38.869Z,26.42
2019-06-15T16:37:07.709Z,26.46
2019-06-15T16:39:36.492Z,26.38
2019-06-15T16:42:06.564Z,26.47
2019-06-15T16:44:36.566Z,26.88
2019-06-15T16:47:06.059Z,27.01
2019-06-15T16:49:39.938Z,27.16
2019-06-15T16:52:08.827Z,26.94
2019-06-15T16:54:37.651Z,26.89
2019-06-15T16:57:06.550Z,26.89
2019-06-15T16:59:36.347Z,27.19
2019-06-15T17:02:06.459Z,27.75
2019-06-15T17:04:36.380Z,28.16
2019-06-15T17:07:07.135Z,28.46
2019-06-15T17:09:36.326Z,28.60
2019-06-15T17:12:06.571Z,29.00
2019-06-15T17:14:36.466Z,29.26
2019-06-15T17:17:05.657Z,29.25
2019-06-15T17:19:36.283Z,29.66
2019-06-15T17:22:14.733Z,29.39
2019-06-15T17:24:36.923Z,29.11
2019-06-15T17:27:06.179Z,29.53
2019-06-15T17:29:35.065Z,29.74
2019-06-15T17:32:06.340Z,29.86
2019-06-15T17:34:36.357Z,29.71
2019-06-15T17:37:06.814Z,29.50
2019-06-15T17:39:37.522Z,29.24
2019-06-15T17:42:07.014Z,29.25
2019-06-15T17:44:37.002Z,29.27
2019-06-15T17:47:07.312Z,29.27
2019-06-15T17:49:37.171Z,28.14
2019-06-15T17:52:06.553Z,27.84
2019-06-15T17:54:37.348Z,27.55
2019-06-15T17:57:05.908Z,27.41
2019-06-15T17:59:36.443Z,27.19
2019-06-15T18:02:06.313Z,26.91
2019-06-15T18:04:37.167Z,26.77
2019-06-15T18:07:05.723Z,26.80
2019-06-15T18:09:36.734Z,26.75
2019-06-15T18:12:06.578Z,26.46
2019-06-15T18:14:36.804Z,26.40
2019-06-15T18:17:07.283Z,26.35
2019-06-15T18:19:38.635Z,26.37
2019-06-15T18:22:07.399Z,26.23
2019-06-15T18:24:37.213Z,26.02
2019-06-15T18:27:08.951Z,25.70
2019-06-15T18:29:36.887Z,25.56
2019-06-15T18:32:06.435Z,25.30
2019-06-15T18:34:36.812Z,25.28
2019-06-15T18:37:07.728Z,25.11
2019-06-15T18:39:36.945Z,25.10
2019-06-15T18:42:07.710Z,24.94
2019-06-15T18:44:36.687Z,24.84
2019-06-15T18:47:07.057Z,24.76
2019-06-15T18:49:36.315Z,24.83
2019-06-15T18:52:06.173Z,24.72
2019-06-15T18:54:36.396Z,24.68
2019-06-15T18:57:07.418Z,24.43
2019-06-15T18:59:36.533Z,24.32
2019-06-15T19:02:06.660Z,24.25
2019-06-15T19:04:35.609Z,24.27
2019-06-15T19:07:06.507Z,24.11
2019-06-15T19:09:34.772Z,23.99
2019-06-15T19:12:06.892Z,23.91
2019-06-15T19:14:36.147Z,23.85
2019-06-15T19:17:06.036Z,23.74
2019-06-15T19:19:37.552Z,23.62
2019-06-15T19:22:06.522Z,23.51
2019-06-15T19:24:36.839Z,23.48
2019-06-15T19:27:08.112Z,23.39
2019-06-15T19:29:36.387Z,23.22
2019-06-15T19:32:07.930Z,23.19
2019-06-15T19:34:44.224Z,23.00
2019-06-15T19:37:06.819Z,22.93
2019-06-15T19:39:36.922Z,22.63
2019-06-15T19:42:12.104Z,22.58
2019-06-15T19:44:40.765Z,22.50
2019-06-15T19:47:09.528Z,22.50
2019-06-15T19:49:38.198Z,22.12
2019-06-15T19:52:07.123Z,21.97
2019-06-15T19:54:36.574Z,21.76
2019-06-15T19:57:06.814Z,21.78
2019-06-15T19:59:36.666Z,21.63
2019-06-15T20:02:07.127Z,21.52
2019-06-15T20:04:36.282Z,21.34
2019-06-15T20:07:06.556Z,21.37
2019-06-15T20:09:37.056Z,21.31
2019-06-15T20:12:06.605Z,21.21
2019-06-15T20:14:36.736Z,21.19
2019-06-15T20:17:07.367Z,21.13
2019-06-15T20:19:37.656Z,21.08
2019-06-15T20:22:06.830Z,21.02
2019-06-15T20:24:36.493Z,20.95
2019-06-15T20:27:09.709Z,20.77
2019-06-15T20:29:36.246Z,20.68
2019-06-15T20:32:06.849Z,20.76
2019-06-15T20:34:37.056Z,20.77
2019-06-15T20:37:06.089Z,20.51
2019-06-15T20:39:36.261Z,20.34
2019-06-15T20:42:07.887Z,20.09
2019-06-15T20:44:36.834Z,19.88
2019-06-15T20:47:06.554Z,19.87
2019-06-15T20:49:36.998Z,19.75
2019-06-15T20:52:07.079Z,19.60
2019-06-15T20:54:36.157Z,19.64
2019-06-15T20:57:06.399Z,19.53
2019-06-15T20:59:37.057Z,19.52
2019-06-15T21:02:06.707Z,19.59
2019-06-15T21:04:36.356Z,19.54
2019-06-15T21:07:06.597Z,19.62
2019-06-15T21:09:36.409Z,19.53
2019-06-15T21:12:06.680Z,19.36
2019-06-15T21:14:36.615Z,19.40
2019-06-15T21:17:06.738Z,19.38
2019-06-15T21:19:36.196Z,19.02
2019-06-15T21:22:06.383Z,19.02
2019-06-15T21:24:37.333Z,19.00
2019-06-15T21:27:06.287Z,19.00
2019-06-15T21:29:36.984Z,18.86
2019-06-15T21:32:05.917Z,18.57
2019-06-15T21:34:36.170Z,18.55
2019-06-15T21:37:06.541Z,18.55
2019-06-15T21:39:36.516Z,18.53
2019-06-15T21:42:05.709Z,18.55
2019-06-15T21:44:36.154Z,18.55
2019-06-15T21:47:06.894Z,18.56
2019-06-15T21:49:35.897Z,18.58
2019-06-15T21:52:06.949Z,18.39
2019-06-15T21:54:36.143Z,18.38
2019-06-15T21:57:07.030Z,18.38
2019-06-15T21:59:36.987Z,18.00
2019-06-15T22:02:07.078Z,17.78
2019-06-15T22:04:36.830Z,17.75
2019-06-15T22:07:06.572Z,17.75
2019-06-15T22:09:36.363Z,17.93
2019-06-15T22:12:06.878Z,18.02
2019-06-15T22:14:35.864Z,18.19
2019-06-15T22:17:06.785Z,18.19
2019-06-15T22:19:36.881Z,17.80
2019-06-15T22:22:07.456Z,17.80
2019-06-15T22:24:36.361Z,17.82
2019-06-15T22:27:06.648Z,17.82
2019-06-15T22:29:36.469Z,17.76
2019-06-15T22:32:06.891Z,17.84
2019-06-15T22:34:36.388Z,17.78
2019-06-15T22:37:06.887Z,17.91
2019-06-15T22:39:37.047Z,17.91
2019-06-15T22:42:06.846Z,17.86
2019-06-15T22:44:37.198Z,17.80
2019-06-15T22:47:06.934Z,17.76
2019-06-15T22:49:36.077Z,17.76
2019-06-15T22:52:06.594Z,17.69
2019-06-15T22:54:37.669Z,17.69
2019-06-15T22:57:06.285Z,17.60
2019-06-15T22:59:35.037Z,17.69
2019-06-15T23:02:03.918Z,17.69
2019-06-15T23:04:32.637Z,17.80
2019-06-15T23:07:01.428Z,17.72
2019-06-15T23:09:30.172Z,17.79
2019-06-15T23:11:58.913Z,17.59
2019-06-15T23:14:27.600Z,17.24
2019-06-15T23:16:56.856Z,17.38
2019-06-15T23:19:26.210Z,17.26
2019-06-15T23:21:57.215Z,17.26
2019-06-15T23:24:27.196Z,17.31
2019-06-15T23:26:57.095Z,17.20
2019-06-15T23:29:27.151Z,17.22
2019-06-15T23:31:57.227Z,17.26
2019-06-15T23:34:27.090Z,17.18
2019-06-15T23:37:00.711Z,17.18
2019-06-15T23:39:28.350Z,17.19
2019-06-15T23:41:59.457Z,17.14
2019-06-15T23:44:28.249Z,17.21
2019-06-15T23:46:56.949Z,17.21
2019-06-15T23:49:26.941Z,17.27
2019-06-15T23:51:57.306Z,17.27
2019-06-15T23:54:27.869Z,17.36
2019-06-15T23:56:56.999Z,17.36
2019-06-15T23:59:26.446Z,17.41
